sensor_id;sensor_type;location;lat;lon;timestamp;P1;durP1;ratioP1;P2;durP2;ratioP2
52043;SDS011;38053;53.100;6.078;2023-07-16T00:00:10;13.52;;;4.72;;
52043;SDS011;38053;53.100;6.078;2023-07-16T00:02:37;17.10;;;4.97;;
52043;SDS011;38053;53.100;6.078;2023-07-16T00:05:03;36.97;;;5.25;;
52043;SDS011;38053;53.100;6.078;2023-07-16T00:07:31;11.85;;;4.85;;
52043;SDS011;38053;53.100;6.078;2023-07-16T00:09:56;14.30;;;4.25;;
52043;SDS011;38053;53.100;6.078;2023-07-16T00:12:22;15.18;;;4.28;;
52043;SDS011;38053;53.100;6.078;2023-07-16T00:14:49;13.63;;;4.15;;
52043;SDS011;38053;53.100;6.078;2023-07-16T00:17:16;15.00;;;3.90;;
52043;SDS011;38053;53.100;6.078;2023-07-16T00:19:42;13.38;;;3.80;;
52043;SDS011;38053;53.100;6.078;2023-07-16T00:22:07;12.05;;;4.03;;
52043;SDS011;38053;53.100;6.078;2023-07-16T00:24:33;29.65;;;4.70;;
52043;SDS011;38053;53.100;6.078;2023-07-16T00:26:59;15.38;;;4.63;;
52043;SDS011;38053;53.100;6.078;2023-07-16T00:29:26;14.15;;;4.90;;
52043;SDS011;38053;53.100;6.078;2023-07-16T00:31:51;15.40;;;3.97;;
52043;SDS011;38053;53.100;6.078;2023-07-16T00:34:17;13.63;;;4.25;;
52043;SDS011;38053;53.100;6.078;2023-07-16T00:36:43;17.63;;;4.65;;
52043;SDS011;38053;53.100;6.078;2023-07-16T00:39:08;14.40;;;3.70;;
52043;SDS011;38053;53.100;6.078;2023-07-16T00:41:35;11.63;;;4.20;;
52043;SDS011;38053;53.100;6.078;2023-07-16T00:44:01;16.30;;;3.80;;
52043;SDS011;38053;53.100;6.078;2023-07-16T00:46:26;11.30;;;3.75;;
52043;SDS011;38053;53.100;6.078;2023-07-16T00:48:52;13.13;;;4.82;;
52043;SDS011;38053;53.100;6.078;2023-07-16T00:51:18;15.30;;;4.90;;
52043;SDS011;38053;53.100;6.078;2023-07-16T00:53:44;15.20;;;4.68;;
52043;SDS011;38053;53.100;6.078;2023-07-16T00:56:11;15.27;;;3.63;;
52043;SDS011;38053;53.100;6.078;2023-07-16T00:58:40;23.52;;;5.57;;
52043;SDS011;38053;53.100;6.078;2023-07-16T01:01:05;13.60;;;3.95;;
52043;SDS011;38053;53.100;6.078;2023-07-16T01:03:31;14.82;;;4.50;;
52043;SDS011;38053;53.100;6.078;2023-07-16T01:06:22;16.02;;;5.82;;
52043;SDS011;38053;53.100;6.078;2023-07-16T01:09:07;16.90;;;5.35;;
52043;SDS011;38053;53.100;6.078;2023-07-16T01:11:40;14.13;;;4.70;;
52043;SDS011;38053;53.100;6.078;2023-07-16T01:14:08;12.88;;;3.85;;
52043;SDS011;38053;53.100;6.078;2023-07-16T01:16:35;16.27;;;4.05;;
52043;SDS011;38053;53.100;6.078;2023-07-16T01:19:01;17.63;;;4.70;;
52043;SDS011;38053;53.100;6.078;2023-07-16T01:29:58;23.43;;;4.77;;
52043;SDS011;38053;53.100;6.078;2023-07-16T01:32:30;14.65;;;3.83;;
52043;SDS011;38053;53.100;6.078;2023-07-16T01:34:56;15.52;;;3.95;;
52043;SDS011;38053;53.100;6.078;2023-07-16T01:37:22;13.52;;;4.10;;
52043;SDS011;38053;53.100;6.078;2023-07-16T01:39:49;17.67;;;4.38;;
52043;SDS011;38053;53.100;6.078;2023-07-16T01:42:15;20.38;;;5.55;;
52043;SDS011;38053;53.100;6.078;2023-07-16T01:44:44;16.33;;;3.97;;
52043;SDS011;38053;53.100;6.078;2023-07-16T01:49:36;11.00;;;4.25;;
52043;SDS011;38053;53.100;6.078;2023-07-16T01:52:07;13.10;;;4.20;;
52043;SDS011;38053;53.100;6.078;2023-07-16T01:54:34;14.60;;;3.85;;
52043;SDS011;38053;53.100;6.078;2023-07-16T01:57:00;12.75;;;4.50;;
52043;SDS011;38053;53.100;6.078;2023-07-16T01:59:27;12.10;;;4.05;;
52043;SDS011;38053;53.100;6.078;2023-07-16T02:01:53;11.10;;;3.58;;
52043;SDS011;38053;53.100;6.078;2023-07-16T02:04:20;19.10;;;3.25;;
52043;SDS011;38053;53.100;6.078;2023-07-16T02:06:46;9.13;;;2.83;;
52043;SDS011;38053;53.100;6.078;2023-07-16T02:09:13;13.15;;;3.25;;
52043;SDS011;38053;53.100;6.078;2023-07-16T02:11:39;12.77;;;4.25;;
52043;SDS011;38053;53.100;6.078;2023-07-16T02:14:05;17.17;;;3.85;;
52043;SDS011;38053;53.100;6.078;2023-07-16T02:16:30;14.35;;;3.80;;
52043;SDS011;38053;53.100;6.078;2023-07-16T02:19:05;9.77;;;3.13;;
52043;SDS011;38053;53.100;6.078;2023-07-16T02:21:31;22.48;;;5.45;;
52043;SDS011;38053;53.100;6.078;2023-07-16T02:23:57;11.73;;;3.95;;
52043;SDS011;38053;53.100;6.078;2023-07-16T02:26:22;15.90;;;4.03;;
52043;SDS011;38053;53.100;6.078;2023-07-16T02:28:48;16.08;;;5.63;;
52043;SDS011;38053;53.100;6.078;2023-07-16T02:31:14;17.88;;;4.75;;
52043;SDS011;38053;53.100;6.078;2023-07-16T02:33:39;13.75;;;4.22;;
52043;SDS011;38053;53.100;6.078;2023-07-16T02:36:08;16.50;;;6.25;;
52043;SDS011;38053;53.100;6.078;2023-07-16T02:38:34;17.08;;;5.20;;
52043;SDS011;38053;53.100;6.078;2023-07-16T02:41:00;20.88;;;5.22;;
52043;SDS011;38053;53.100;6.078;2023-07-16T02:43:25;19.48;;;5.55;;
52043;SDS011;38053;53.100;6.078;2023-07-16T02:45:51;12.93;;;4.30;;
52043;SDS011;38053;53.100;6.078;2023-07-16T02:48:18;13.25;;;5.45;;
52043;SDS011;38053;53.100;6.078;2023-07-16T02:50:44;18.77;;;4.82;;
52043;SDS011;38053;53.100;6.078;2023-07-16T02:53:11;12.52;;;4.53;;
52043;SDS011;38053;53.100;6.078;2023-07-16T02:55:37;16.60;;;5.55;;
52043;SDS011;38053;53.100;6.078;2023-07-16T02:58:03;13.38;;;5.00;;
52043;SDS011;38053;53.100;6.078;2023-07-16T03:00:30;11.50;;;4.93;;
52043;SDS011;38053;53.100;6.078;2023-07-16T03:02:57;14.23;;;4.60;;
52043;SDS011;38053;53.100;6.078;2023-07-16T03:05:24;15.57;;;5.00;;
52043;SDS011;38053;53.100;6.078;2023-07-16T03:07:50;17.73;;;5.47;;
52043;SDS011;38053;53.100;6.078;2023-07-16T03:10:16;13.60;;;5.30;;
52043;SDS011;38053;53.100;6.078;2023-07-16T03:12:45;11.38;;;4.72;;
52043;SDS011;38053;53.100;6.078;2023-07-16T03:15:10;17.85;;;6.50;;
52043;SDS011;38053;53.100;6.078;2023-07-16T03:17:36;14.55;;;5.20;;
52043;SDS011;38053;53.100;6.078;2023-07-16T03:20:02;21.45;;;6.13;;
52043;SDS011;38053;53.100;6.078;2023-07-16T03:22:33;15.43;;;5.18;;
52043;SDS011;38053;53.100;6.078;2023-07-16T03:25:02;17.47;;;5.37;;
52043;SDS011;38053;53.100;6.078;2023-07-16T03:27:34;10.18;;;5.07;;
52043;SDS011;38053;53.100;6.078;2023-07-16T03:29:59;16.02;;;7.13;;
52043;SDS011;38053;53.100;6.078;2023-07-16T03:32:25;14.32;;;5.47;;
52043;SDS011;38053;53.100;6.078;2023-07-16T03:34:51;18.30;;;7.03;;
52043;SDS011;38053;53.100;6.078;2023-07-16T03:37:16;14.15;;;4.95;;
52043;SDS011;38053;53.100;6.078;2023-07-16T03:39:43;15.82;;;6.13;;
52043;SDS011;38053;53.100;6.078;2023-07-16T03:42:08;16.05;;;6.45;;
52043;SDS011;38053;53.100;6.078;2023-07-16T03:44:34;15.48;;;6.28;;
52043;SDS011;38053;53.100;6.078;2023-07-16T03:47:00;17.33;;;6.07;;
52043;SDS011;38053;53.100;6.078;2023-07-16T03:49:26;19.58;;;6.57;;
52043;SDS011;38053;53.100;6.078;2023-07-16T03:51:51;14.88;;;6.55;;
52043;SDS011;38053;53.100;6.078;2023-07-16T03:54:17;12.00;;;5.75;;
52043;SDS011;38053;53.100;6.078;2023-07-16T03:56:43;15.98;;;5.63;;
52043;SDS011;38053;53.100;6.078;2023-07-16T03:59:09;16.90;;;6.00;;
52043;SDS011;38053;53.100;6.078;2023-07-16T04:01:35;16.77;;;6.15;;
52043;SDS011;38053;53.100;6.078;2023-07-16T04:04:01;23.02;;;7.70;;
52043;SDS011;38053;53.100;6.078;2023-07-16T04:06:26;26.48;;;7.15;;
52043;SDS011;38053;53.100;6.078;2023-07-16T04:08:52;22.15;;;7.20;;
52043;SDS011;38053;53.100;6.078;2023-07-16T04:11:19;12.40;;;6.07;;
52043;SDS011;38053;53.100;6.078;2023-07-16T04:13:46;19.13;;;8.18;;
52043;SDS011;38053;53.100;6.078;2023-07-16T04:16:12;15.15;;;6.55;;
52043;SDS011;38053;53.100;6.078;2023-07-16T04:18:39;16.05;;;6.63;;
52043;SDS011;38053;53.100;6.078;2023-07-16T04:21:04;21.70;;;7.25;;
52043;SDS011;38053;53.100;6.078;2023-07-16T04:23:30;25.65;;;7.13;;
52043;SDS011;38053;53.100;6.078;2023-07-16T04:25:56;19.60;;;6.75;;
52043;SDS011;38053;53.100;6.078;2023-07-16T04:28:22;14.13;;;6.32;;
52043;SDS011;38053;53.100;6.078;2023-07-16T04:30:47;21.13;;;6.60;;
52043;SDS011;38053;53.100;6.078;2023-07-16T04:33:20;19.45;;;6.68;;
52043;SDS011;38053;53.100;6.078;2023-07-16T04:35:46;18.33;;;7.43;;
52043;SDS011;38053;53.100;6.078;2023-07-16T04:38:12;25.98;;;6.30;;
52043;SDS011;38053;53.100;6.078;2023-07-16T04:40:38;19.58;;;8.13;;
52043;SDS011;38053;53.100;6.078;2023-07-16T04:43:09;20.52;;;8.02;;
52043;SDS011;38053;53.100;6.078;2023-07-16T04:45:35;15.70;;;6.82;;
52043;SDS011;38053;53.100;6.078;2023-07-16T04:48:01;15.13;;;6.68;;
52043;SDS011;38053;53.100;6.078;2023-07-16T04:50:29;16.95;;;7.90;;
52043;SDS011;38053;53.100;6.078;2023-07-16T04:53:04;14.90;;;7.38;;
52043;SDS011;38053;53.100;6.078;2023-07-16T04:55:34;14.63;;;7.10;;
52043;SDS011;38053;53.100;6.078;2023-07-16T04:58:04;23.52;;;9.52;;
52043;SDS011;38053;53.100;6.078;2023-07-16T05:00:33;20.35;;;9.95;;
52043;SDS011;38053;53.100;6.078;2023-07-16T05:02:59;16.38;;;7.97;;
52043;SDS011;38053;53.100;6.078;2023-07-16T05:05:25;17.83;;;8.63;;
52043;SDS011;38053;53.100;6.078;2023-07-16T05:07:51;18.83;;;7.70;;
52043;SDS011;38053;53.100;6.078;2023-07-16T05:10:16;18.70;;;6.72;;
52043;SDS011;38053;53.100;6.078;2023-07-16T05:12:45;20.40;;;5.60;;
52043;SDS011;38053;53.100;6.078;2023-07-16T05:15:11;19.42;;;7.88;;
52043;SDS011;38053;53.100;6.078;2023-07-16T05:17:38;21.80;;;8.00;;
52043;SDS011;38053;53.100;6.078;2023-07-16T05:20:05;22.23;;;7.07;;
52043;SDS011;38053;53.100;6.078;2023-07-16T05:22:32;17.40;;;6.88;;
52043;SDS011;38053;53.100;6.078;2023-07-16T05:24:58;19.95;;;7.32;;
52043;SDS011;38053;53.100;6.078;2023-07-16T05:27:24;20.83;;;7.30;;
52043;SDS011;38053;53.100;6.078;2023-07-16T05:29:50;23.20;;;8.45;;
52043;SDS011;38053;53.100;6.078;2023-07-16T05:32:19;26.48;;;7.55;;
52043;SDS011;38053;53.100;6.078;2023-07-16T05:34:48;14.65;;;6.45;;
52043;SDS011;38053;53.100;6.078;2023-07-16T05:37:14;16.55;;;6.07;;
52043;SDS011;38053;53.100;6.078;2023-07-16T05:39:39;11.80;;;6.00;;
52043;SDS011;38053;53.100;6.078;2023-07-16T05:42:05;16.08;;;6.93;;
52043;SDS011;38053;53.100;6.078;2023-07-16T05:44:31;16.92;;;8.20;;
52043;SDS011;38053;53.100;6.078;2023-07-16T05:46:57;16.23;;;6.47;;
52043;SDS011;38053;53.100;6.078;2023-07-16T05:49:24;13.60;;;7.07;;
52043;SDS011;38053;53.100;6.078;2023-07-16T05:51:51;14.00;;;6.10;;
52043;SDS011;38053;53.100;6.078;2023-07-16T05:54:17;19.63;;;7.50;;
52043;SDS011;38053;53.100;6.078;2023-07-16T05:56:43;16.73;;;5.82;;
52043;SDS011;38053;53.100;6.078;2023-07-16T05:59:09;19.35;;;6.80;;
52043;SDS011;38053;53.100;6.078;2023-07-16T06:01:35;17.55;;;6.85;;
52043;SDS011;38053;53.100;6.078;2023-07-16T06:04:00;16.70;;;7.05;;
52043;SDS011;38053;53.100;6.078;2023-07-16T06:06:27;17.08;;;6.88;;
52043;SDS011;38053;53.100;6.078;2023-07-16T06:08:57;15.82;;;7.43;;
52043;SDS011;38053;53.100;6.078;2023-07-16T06:11:22;18.33;;;7.07;;
52043;SDS011;38053;53.100;6.078;2023-07-16T06:13:48;20.42;;;8.48;;
52043;SDS011;38053;53.100;6.078;2023-07-16T06:16:18;18.60;;;7.57;;
52043;SDS011;38053;53.100;6.078;2023-07-16T06:18:44;15.75;;;6.72;;
52043;SDS011;38053;53.100;6.078;2023-07-16T06:21:09;16.98;;;7.10;;
52043;SDS011;38053;53.100;6.078;2023-07-16T06:23:35;15.73;;;7.15;;
52043;SDS011;38053;53.100;6.078;2023-07-16T06:26:01;22.67;;;9.13;;
52043;SDS011;38053;53.100;6.078;2023-07-16T06:28:26;15.15;;;7.22;;
52043;SDS011;38053;53.100;6.078;2023-07-16T06:30:52;24.08;;;7.68;;
52043;SDS011;38053;53.100;6.078;2023-07-16T06:33:18;16.58;;;7.18;;
52043;SDS011;38053;53.100;6.078;2023-07-16T06:35:48;20.08;;;7.82;;
52043;SDS011;38053;53.100;6.078;2023-07-16T06:38:14;18.73;;;7.93;;
52043;SDS011;38053;53.100;6.078;2023-07-16T06:40:45;17.50;;;7.75;;
52043;SDS011;38053;53.100;6.078;2023-07-16T06:43:13;20.13;;;8.80;;
52043;SDS011;38053;53.100;6.078;2023-07-16T06:45:42;21.23;;;8.52;;
52043;SDS011;38053;53.100;6.078;2023-07-16T06:48:08;21.30;;;7.95;;
52043;SDS011;38053;53.100;6.078;2023-07-16T06:50:33;20.58;;;8.13;;
52043;SDS011;38053;53.100;6.078;2023-07-16T06:52:59;13.00;;;7.68;;
52043;SDS011;38053;53.100;6.078;2023-07-16T06:55:25;15.45;;;7.93;;
52043;SDS011;38053;53.100;6.078;2023-07-16T06:57:51;13.35;;;7.93;;
52043;SDS011;38053;53.100;6.078;2023-07-16T07:00:17;24.48;;;8.68;;
52043;SDS011;38053;53.100;6.078;2023-07-16T07:02:43;22.58;;;7.93;;
52043;SDS011;38053;53.100;6.078;2023-07-16T07:05:08;19.27;;;7.82;;
52043;SDS011;38053;53.100;6.078;2023-07-16T07:07:34;17.65;;;7.25;;
52043;SDS011;38053;53.100;6.078;2023-07-16T07:10:00;19.65;;;7.00;;
52043;SDS011;38053;53.100;6.078;2023-07-16T07:12:26;18.05;;;7.05;;
52043;SDS011;38053;53.100;6.078;2023-07-16T07:14:52;17.20;;;7.50;;
52043;SDS011;38053;53.100;6.078;2023-07-16T07:17:18;12.75;;;6.75;;
52043;SDS011;38053;53.100;6.078;2023-07-16T07:19:43;18.10;;;7.68;;
52043;SDS011;38053;53.100;6.078;2023-07-16T07:22:10;18.63;;;8.60;;
52043;SDS011;38053;53.100;6.078;2023-07-16T07:24:38;13.85;;;7.13;;
52043;SDS011;38053;53.100;6.078;2023-07-16T07:27:04;22.13;;;8.48;;
52043;SDS011;38053;53.100;6.078;2023-07-16T07:29:29;13.57;;;7.30;;
52043;SDS011;38053;53.100;6.078;2023-07-16T07:31:55;17.50;;;7.07;;
52043;SDS011;38053;53.100;6.078;2023-07-16T07:34:21;20.25;;;8.95;;
52043;SDS011;38053;53.100;6.078;2023-07-16T07:36:48;20.73;;;7.72;;
52043;SDS011;38053;53.100;6.078;2023-07-16T07:39:15;15.15;;;7.47;;
52043;SDS011;38053;53.100;6.078;2023-07-16T07:41:41;15.38;;;7.80;;
52043;SDS011;38053;53.100;6.078;2023-07-16T07:44:07;14.65;;;7.38;;
52043;SDS011;38053;53.100;6.078;2023-07-16T07:46:33;16.00;;;8.02;;
52043;SDS011;38053;53.100;6.078;2023-07-16T07:48:58;18.15;;;7.47;;
52043;SDS011;38053;53.100;6.078;2023-07-16T07:51:24;27.70;;;8.45;;
52043;SDS011;38053;53.100;6.078;2023-07-16T07:53:51;15.85;;;8.15;;
52043;SDS011;38053;53.100;6.078;2023-07-16T07:56:17;13.55;;;7.55;;
52043;SDS011;38053;53.100;6.078;2023-07-16T07:58:44;18.40;;;8.80;;
52043;SDS011;38053;53.100;6.078;2023-07-16T08:01:10;21.50;;;10.13;;
52043;SDS011;38053;53.100;6.078;2023-07-16T08:03:36;19.55;;;9.18;;
52043;SDS011;38053;53.100;6.078;2023-07-16T08:06:05;17.83;;;8.90;;
52043;SDS011;38053;53.100;6.078;2023-07-16T08:08:33;16.48;;;8.43;;
52043;SDS011;38053;53.100;6.078;2023-07-16T08:10:59;20.48;;;8.05;;
52043;SDS011;38053;53.100;6.078;2023-07-16T08:13:25;15.40;;;7.90;;
52043;SDS011;38053;53.100;6.078;2023-07-16T08:15:51;18.58;;;9.38;;
52043;SDS011;38053;53.100;6.078;2023-07-16T08:18:18;19.33;;;9.68;;
52043;SDS011;38053;53.100;6.078;2023-07-16T08:20:46;17.23;;;8.70;;
52043;SDS011;38053;53.100;6.078;2023-07-16T08:23:13;19.00;;;9.25;;
52043;SDS011;38053;53.100;6.078;2023-07-16T08:25:39;19.88;;;8.77;;
52043;SDS011;38053;53.100;6.078;2023-07-16T08:28:04;19.02;;;9.05;;
52043;SDS011;38053;53.100;6.078;2023-07-16T08:30:32;18.75;;;8.45;;
52043;SDS011;38053;53.100;6.078;2023-07-16T08:32:59;19.30;;;9.57;;
52043;SDS011;38053;53.100;6.078;2023-07-16T08:35:24;22.17;;;8.52;;
52043;SDS011;38053;53.100;6.078;2023-07-16T08:37:50;16.98;;;8.02;;
52043;SDS011;38053;53.100;6.078;2023-07-16T08:40:16;20.48;;;8.35;;
52043;SDS011;38053;53.100;6.078;2023-07-16T08:42:44;20.67;;;9.73;;
52043;SDS011;38053;53.100;6.078;2023-07-16T08:45:11;19.48;;;8.68;;
52043;SDS011;38053;53.100;6.078;2023-07-16T08:47:37;18.00;;;8.40;;
52043;SDS011;38053;53.100;6.078;2023-07-16T08:50:04;14.07;;;8.13;;
52043;SDS011;38053;53.100;6.078;2023-07-16T08:52:30;17.27;;;8.05;;
52043;SDS011;38053;53.100;6.078;2023-07-16T08:54:59;15.80;;;7.95;;
52043;SDS011;38053;53.100;6.078;2023-07-16T08:57:24;17.20;;;7.55;;
52043;SDS011;38053;53.100;6.078;2023-07-16T08:59:52;16.48;;;8.25;;
52043;SDS011;38053;53.100;6.078;2023-07-16T09:02:19;13.20;;;6.93;;
52043;SDS011;38053;53.100;6.078;2023-07-16T09:04:49;12.65;;;7.47;;
52043;SDS011;38053;53.100;6.078;2023-07-16T09:07:16;20.13;;;7.28;;
52043;SDS011;38053;53.100;6.078;2023-07-16T09:09:42;15.82;;;6.63;;
52043;SDS011;38053;53.100;6.078;2023-07-16T09:12:11;15.05;;;6.63;;
52043;SDS011;38053;53.100;6.078;2023-07-16T09:14:37;18.83;;;8.10;;
52043;SDS011;38053;53.100;6.078;2023-07-16T09:17:10;17.15;;;7.40;;
52043;SDS011;38053;53.100;6.078;2023-07-16T09:19:36;13.48;;;6.90;;
52043;SDS011;38053;53.100;6.078;2023-07-16T09:22:01;19.98;;;7.95;;
52043;SDS011;38053;53.100;6.078;2023-07-16T09:24:28;15.75;;;8.48;;
52043;SDS011;38053;53.100;6.078;2023-07-16T09:26:54;19.45;;;7.88;;
52043;SDS011;38053;53.100;6.078;2023-07-16T09:29:21;17.13;;;7.05;;
52043;SDS011;38053;53.100;6.078;2023-07-16T09:31:56;20.30;;;6.97;;
52043;SDS011;38053;53.100;6.078;2023-07-16T09:34:28;13.68;;;7.38;;
52043;SDS011;38053;53.100;6.078;2023-07-16T09:36:56;16.65;;;7.22;;
52043;SDS011;38053;53.100;6.078;2023-07-16T09:39:22;15.20;;;7.57;;
52043;SDS011;38053;53.100;6.078;2023-07-16T09:41:50;18.88;;;6.72;;
52043;SDS011;38053;53.100;6.078;2023-07-16T09:44:16;16.08;;;6.40;;
52043;SDS011;38053;53.100;6.078;2023-07-16T09:46:46;15.98;;;6.13;;
52043;SDS011;38053;53.100;6.078;2023-07-16T09:49:14;16.85;;;6.93;;
52043;SDS011;38053;53.100;6.078;2023-07-16T09:51:41;14.95;;;6.20;;
52043;SDS011;38053;53.100;6.078;2023-07-16T09:54:08;15.90;;;6.03;;
52043;SDS011;38053;53.100;6.078;2023-07-16T09:56:38;15.27;;;5.43;;
52043;SDS011;38053;53.100;6.078;2023-07-16T09:59:08;19.55;;;7.38;;
52043;SDS011;38053;53.100;6.078;2023-07-16T10:01:38;15.93;;;6.93;;
52043;SDS011;38053;53.100;6.078;2023-07-16T10:04:38;15.27;;;7.53;;
52043;SDS011;38053;53.100;6.078;2023-07-16T10:07:06;13.10;;;6.43;;
52043;SDS011;38053;53.100;6.078;2023-07-16T10:09:36;12.50;;;6.53;;
52043;SDS011;38053;53.100;6.078;2023-07-16T10:12:13;13.00;;;6.13;;
52043;SDS011;38053;53.100;6.078;2023-07-16T10:14:44;13.05;;;5.90;;
52043;SDS011;38053;53.100;6.078;2023-07-16T10:17:17;16.70;;;6.50;;
52043;SDS011;38053;53.100;6.078;2023-07-16T10:19:59;12.93;;;6.80;;
52043;SDS011;38053;53.100;6.078;2023-07-16T10:25:24;18.25;;;7.25;;
52043;SDS011;38053;53.100;6.078;2023-07-16T10:27:53;19.05;;;7.80;;
52043;SDS011;38053;53.100;6.078;2023-07-16T10:30:20;15.50;;;7.40;;
52043;SDS011;38053;53.100;6.078;2023-07-16T10:32:46;16.52;;;7.03;;
52043;SDS011;38053;53.100;6.078;2023-07-16T10:35:11;14.98;;;7.10;;
52043;SDS011;38053;53.100;6.078;2023-07-16T10:37:38;17.83;;;8.95;;
52043;SDS011;38053;53.100;6.078;2023-07-16T10:40:05;15.65;;;7.65;;
52043;SDS011;38053;53.100;6.078;2023-07-16T10:42:34;17.02;;;6.78;;
52043;SDS011;38053;53.100;6.078;2023-07-16T10:45:02;16.02;;;6.68;;
52043;SDS011;38053;53.100;6.078;2023-07-16T10:47:30;13.52;;;6.35;;
52043;SDS011;38053;53.100;6.078;2023-07-16T10:49:58;15.02;;;6.95;;
52043;SDS011;38053;53.100;6.078;2023-07-16T10:52:26;14.57;;;6.63;;
52043;SDS011;38053;53.100;6.078;2023-07-16T10:54:52;20.27;;;6.50;;
52043;SDS011;38053;53.100;6.078;2023-07-16T10:57:20;12.25;;;5.22;;
52043;SDS011;38053;53.100;6.078;2023-07-16T10:59:48;18.38;;;6.55;;
52043;SDS011;38053;53.100;6.078;2023-07-16T11:02:16;16.00;;;6.88;;
52043;SDS011;38053;53.100;6.078;2023-07-16T11:04:43;13.90;;;5.90;;
52043;SDS011;38053;53.100;6.078;2023-07-16T11:07:11;10.98;;;5.65;;
52043;SDS011;38053;53.100;6.078;2023-07-16T11:12:20;19.07;;;6.30;;
52043;SDS011;38053;53.100;6.078;2023-07-16T11:14:49;12.85;;;7.00;;
52043;SDS011;38053;53.100;6.078;2023-07-16T11:17:16;12.85;;;5.82;;
52043;SDS011;38053;53.100;6.078;2023-07-16T11:19:46;16.38;;;6.20;;
52043;SDS011;38053;53.100;6.078;2023-07-16T11:24:46;17.15;;;5.75;;
52043;SDS011;38053;53.100;6.078;2023-07-16T11:27:17;11.82;;;5.43;;
52043;SDS011;38053;53.100;6.078;2023-07-16T11:29:49;14.43;;;4.57;;
52043;SDS011;38053;53.100;6.078;2023-07-16T11:34:55;12.70;;;4.00;;
52043;SDS011;38053;53.100;6.078;2023-07-16T11:37:27;15.95;;;4.15;;
52043;SDS011;38053;53.100;6.078;2023-07-16T11:39:57;14.38;;;3.75;;
52043;SDS011;38053;53.100;6.078;2023-07-16T11:42:30;11.10;;;3.75;;
52043;SDS011;38053;53.100;6.078;2023-07-16T11:44:57;13.77;;;3.75;;
52043;SDS011;38053;53.100;6.078;2023-07-16T11:47:23;12.98;;;4.22;;
52043;SDS011;38053;53.100;6.078;2023-07-16T11:49:50;16.50;;;4.10;;
52043;SDS011;38053;53.100;6.078;2023-07-16T11:52:19;14.65;;;5.18;;
52043;SDS011;38053;53.100;6.078;2023-07-16T11:54:46;11.35;;;4.50;;
52043;SDS011;38053;53.100;6.078;2023-07-16T11:57:12;18.95;;;7.00;;
52043;SDS011;38053;53.100;6.078;2023-07-16T11:59:38;19.88;;;5.85;;
52043;SDS011;38053;53.100;6.078;2023-07-16T12:02:04;19.65;;;5.65;;
52043;SDS011;38053;53.100;6.078;2023-07-16T12:04:33;16.02;;;6.18;;
52043;SDS011;38053;53.100;6.078;2023-07-16T12:06:58;17.60;;;5.35;;
52043;SDS011;38053;53.100;6.078;2023-07-16T12:09:27;20.45;;;6.30;;
52043;SDS011;38053;53.100;6.078;2023-07-16T12:11:53;17.88;;;6.50;;
52043;SDS011;38053;53.100;6.078;2023-07-16T12:14:19;16.05;;;6.45;;
52043;SDS011;38053;53.100;6.078;2023-07-16T12:16:49;14.40;;;5.90;;
52043;SDS011;38053;53.100;6.078;2023-07-16T12:19:14;13.65;;;5.82;;
52043;SDS011;38053;53.100;6.078;2023-07-16T12:21:40;15.50;;;5.60;;
52043;SDS011;38053;53.100;6.078;2023-07-16T12:24:06;19.02;;;5.97;;
52043;SDS011;38053;53.100;6.078;2023-07-16T12:26:32;16.33;;;5.53;;
52043;SDS011;38053;53.100;6.078;2023-07-16T12:29:00;13.43;;;5.13;;
52043;SDS011;38053;53.100;6.078;2023-07-16T12:31:33;17.13;;;5.43;;
52043;SDS011;38053;53.100;6.078;2023-07-16T12:33:59;11.25;;;4.85;;
52043;SDS011;38053;53.100;6.078;2023-07-16T12:36:29;15.53;;;4.93;;
52043;SDS011;38053;53.100;6.078;2023-07-16T12:38:55;15.05;;;5.25;;
52043;SDS011;38053;53.100;6.078;2023-07-16T12:41:21;17.88;;;6.18;;
52043;SDS011;38053;53.100;6.078;2023-07-16T12:43:46;14.15;;;5.60;;
52043;SDS011;38053;53.100;6.078;2023-07-16T12:46:13;13.90;;;5.65;;
52043;SDS011;38053;53.100;6.078;2023-07-16T12:48:39;16.95;;;5.68;;
52043;SDS011;38053;53.100;6.078;2023-07-16T12:51:05;17.58;;;5.72;;
52043;SDS011;38053;53.100;6.078;2023-07-16T12:53:31;12.77;;;4.70;;
52043;SDS011;38053;53.100;6.078;2023-07-16T12:55:57;15.48;;;4.80;;
52043;SDS011;38053;53.100;6.078;2023-07-16T12:58:23;17.45;;;4.22;;
52043;SDS011;38053;53.100;6.078;2023-07-16T13:00:50;15.23;;;4.43;;
52043;SDS011;38053;53.100;6.078;2023-07-16T13:03:16;21.15;;;3.78;;
52043;SDS011;38053;53.100;6.078;2023-07-16T13:05:43;20.10;;;5.13;;
52043;SDS011;38053;53.100;6.078;2023-07-16T13:08:10;16.02;;;4.68;;
52043;SDS011;38053;53.100;6.078;2023-07-16T13:10:38;22.65;;;4.55;;
52043;SDS011;38053;53.100;6.078;2023-07-16T13:13:05;16.65;;;3.60;;
52043;SDS011;38053;53.100;6.078;2023-07-16T13:15:31;14.80;;;4.07;;
52043;SDS011;38053;53.100;6.078;2023-07-16T13:17:57;14.75;;;4.22;;
52043;SDS011;38053;53.100;6.078;2023-07-16T13:20:23;17.67;;;4.35;;
52043;SDS011;38053;53.100;6.078;2023-07-16T13:22:49;16.20;;;4.95;;
52043;SDS011;38053;53.100;6.078;2023-07-16T13:25:15;11.15;;;3.83;;
52043;SDS011;38053;53.100;6.078;2023-07-16T13:27:41;16.55;;;4.03;;
52043;SDS011;38053;53.100;6.078;2023-07-16T13:30:06;17.20;;;4.15;;
52043;SDS011;38053;53.100;6.078;2023-07-16T13:32:34;12.98;;;3.28;;
52043;SDS011;38053;53.100;6.078;2023-07-16T13:35:00;14.40;;;3.80;;
52043;SDS011;38053;53.100;6.078;2023-07-16T13:37:25;21.83;;;5.15;;
52043;SDS011;38053;53.100;6.078;2023-07-16T13:39:51;11.30;;;3.83;;
52043;SDS011;38053;53.100;6.078;2023-07-16T13:42:17;23.15;;;4.93;;
52043;SDS011;38053;53.100;6.078;2023-07-16T13:44:42;13.77;;;3.92;;
52043;SDS011;38053;53.100;6.078;2023-07-16T13:47:08;15.82;;;3.10;;
52043;SDS011;38053;53.100;6.078;2023-07-16T13:49:34;16.50;;;3.50;;
52043;SDS011;38053;53.100;6.078;2023-07-16T13:51:59;16.63;;;3.22;;
52043;SDS011;38053;53.100;6.078;2023-07-16T13:54:25;17.48;;;3.28;;
52043;SDS011;38053;53.100;6.078;2023-07-16T13:56:51;19.27;;;3.78;;
52043;SDS011;38053;53.100;6.078;2023-07-16T13:59:16;14.20;;;3.78;;
52043;SDS011;38053;53.100;6.078;2023-07-16T14:01:43;16.33;;;3.17;;
52043;SDS011;38053;53.100;6.078;2023-07-16T14:04:09;16.33;;;3.75;;
52043;SDS011;38053;53.100;6.078;2023-07-16T14:06:36;18.08;;;3.05;;
52043;SDS011;38053;53.100;6.078;2023-07-16T14:09:01;13.65;;;2.83;;
52043;SDS011;38053;53.100;6.078;2023-07-16T14:11:27;16.33;;;3.33;;
52043;SDS011;38053;53.100;6.078;2023-07-16T14:13:56;19.95;;;3.90;;
52043;SDS011;38053;53.100;6.078;2023-07-16T14:16:21;19.33;;;3.95;;
52043;SDS011;38053;53.100;6.078;2023-07-16T14:18:51;11.27;;;3.33;;
52043;SDS011;38053;53.100;6.078;2023-07-16T14:21:19;11.70;;;3.17;;
52043;SDS011;38053;53.100;6.078;2023-07-16T14:23:45;11.45;;;2.80;;
52043;SDS011;38053;53.100;6.078;2023-07-16T14:26:11;10.65;;;2.92;;
52043;SDS011;38053;53.100;6.078;2023-07-16T14:28:37;10.07;;;2.33;;
52043;SDS011;38053;53.100;6.078;2023-07-16T14:31:03;11.20;;;3.30;;
52043;SDS011;38053;53.100;6.078;2023-07-16T14:33:32;9.43;;;2.67;;
52043;SDS011;38053;53.100;6.078;2023-07-16T14:35:59;12.95;;;2.70;;
52043;SDS011;38053;53.100;6.078;2023-07-16T14:38:25;15.95;;;3.25;;
52043;SDS011;38053;53.100;6.078;2023-07-16T14:40:53;12.57;;;3.47;;
52043;SDS011;38053;53.100;6.078;2023-07-16T14:43:19;14.73;;;3.42;;
52043;SDS011;38053;53.100;6.078;2023-07-16T14:45:45;12.45;;;3.45;;
52043;SDS011;38053;53.100;6.078;2023-07-16T14:48:11;10.55;;;2.33;;
52043;SDS011;38053;53.100;6.078;2023-07-16T14:50:37;10.90;;;3.15;;
52043;SDS011;38053;53.100;6.078;2023-07-16T14:53:04;14.73;;;3.28;;
52043;SDS011;38053;53.100;6.078;2023-07-16T14:55:30;13.13;;;3.25;;